sensor_id;sensor_type;location;lat;lon;timestamp;pressure;altitude;pressure_sealevel;temperature;humidity
6216;BME280;3141;49.234;9.326;2022-11-20T00:00:03;99197.63;;;6.85;82.31
6216;BME280;3141;49.234;9.326;2022-11-20T00:00:46;99193.50;;;6.83;83.23
6216;BME280;3141;49.234;9.326;2022-11-20T00:01:28;99197.34;;;6.88;82.70
6216;BME280;3141;49.234;9.326;2022-11-20T00:02:11;99203.41;;;6.98;82.29
6216;BME280;3141;49.234;9.326;2022-11-20T00:02:53;99204.31;;;7.07;81.73
6216;BME280;3141;49.234;9.326;2022-11-20T00:03:35;99204.31;;;7.07;81.63
6216;BME280;3141;49.234;9.326;2022-11-20T00:04:18;99210.00;;;7.02;81.58
6216;BME280;3141;49.234;9.326;2022-11-20T00:05:00;99210.16;;;7.01;81.28
6216;BME280;3141;49.234;9.326;2022-11-20T00:05:43;99207.88;;;6.88;81.76
6216;BME280;3141;49.234;9.326;2022-11-20T00:06:26;99206.97;;;6.97;81.60
6216;BME280;3141;49.234;9.326;2022-11-20T00:07:09;99199.25;;;6.96;81.83
6216;BME280;3141;49.234;9.326;2022-11-20T00:07:51;99205.44;;;7.04;81.75
6216;BME280;3141;49.234;9.326;2022-11-20T00:08:34;99205.56;;;7.13;81.44
6216;BME280;3141;49.234;9.326;2022-11-20T00:09:16;99202.81;;;7.04;81.54
6216;BME280;3141;49.234;9.326;2022-11-20T00:09:59;99194.06;;;7.14;81.43
6216;BME280;3141;49.234;9.326;2022-11-20T00:10:41;99202.31;;;7.19;81.43
6216;BME280;3141;49.234;9.326;2022-11-20T00:11:25;99206.97;;;7.07;81.77
6216;BME280;3141;49.234;9.326;2022-11-20T00:12:07;99201.69;;;7.07;81.64
6216;BME280;3141;49.234;9.326;2022-11-20T00:12:49;99206.09;;;7.16;81.48
6216;BME280;3141;49.234;9.326;2022-11-20T00:13:32;99194.28;;;7.20;81.66
6216;BME280;3141;49.234;9.326;2022-11-20T00:14:15;99196.69;;;7.14;81.38
6216;BME280;3141;49.234;9.326;2022-11-20T00:14:57;99196.28;;;7.09;81.20
6216;BME280;3141;49.234;9.326;2022-11-20T00:15:40;99204.19;;;7.09;81.11
6216;BME280;3141;49.234;9.326;2022-11-20T00:16:23;99200.31;;;7.13;81.30
6216;BME280;3141;49.234;9.326;2022-11-20T00:17:06;99200.31;;;7.13;81.22
6216;BME280;3141;49.234;9.326;2022-11-20T00:17:49;99200.19;;;7.04;81.58
6216;BME280;3141;49.234;9.326;2022-11-20T00:18:33;99198.63;;;7.12;81.32
6216;BME280;3141;49.234;9.326;2022-11-20T00:19:15;99202.31;;;7.19;81.13
6216;BME280;3141;49.234;9.326;2022-11-20T00:19:58;99199.41;;;7.22;81.18
6216;BME280;3141;49.234;9.326;2022-11-20T00:20:40;99191.38;;;7.23;81.15
6216;BME280;3141;49.234;9.326;2022-11-20T00:21:24;99191.25;;;7.25;80.86
6216;BME280;3141;49.234;9.326;2022-11-20T00:22:07;99195.81;;;7.23;80.71
6216;BME280;3141;49.234;9.326;2022-11-20T00:22:50;99191.09;;;7.26;80.79
6216;BME280;3141;49.234;9.326;2022-11-20T00:23:33;99184.53;;;7.30;80.55
6216;BME280;3141;49.234;9.326;2022-11-20T00:24:15;99189.38;;;7.35;80.27
6216;BME280;3141;49.234;9.326;2022-11-20T00:24:58;99188.31;;;7.28;80.63
6216;BME280;3141;49.234;9.326;2022-11-20T00:25:40;99191.91;;;7.27;80.69
6216;BME280;3141;49.234;9.326;2022-11-20T00:26:24;99196.38;;;7.17;80.60
6216;BME280;3141;49.234;9.326;2022-11-20T00:27:07;99201.34;;;7.20;81.19
6216;BME280;3141;49.234;9.326;2022-11-20T00:27:50;99191.13;;;7.17;81.02
6216;BME280;3141;49.234;9.326;2022-11-20T00:28:32;99196.38;;;7.17;81.53
6216;BME280;3141;49.234;9.326;2022-11-20T00:29:15;99197.53;;;7.14;81.31
6216;BME280;3141;49.234;9.326;2022-11-20T00:29:57;99190.75;;;7.12;80.43
6216;BME280;3141;49.234;9.326;2022-11-20T00:30:40;99195.81;;;7.23;80.38
6216;BME280;3141;49.234;9.326;2022-11-20T00:31:22;99194.59;;;7.17;80.35
6216;BME280;3141;49.234;9.326;2022-11-20T00:32:05;99202.47;;;7.17;80.29
6216;BME280;3141;49.234;9.326;2022-11-20T00:32:47;99198.94;;;7.09;80.55
6216;BME280;3141;49.234;9.326;2022-11-20T00:33:30;99197.25;;;7.07;80.34
6216;BME280;3141;49.234;9.326;2022-11-20T00:34:12;99192.81;;;7.08;80.45
6216;BME280;3141;49.234;9.326;2022-11-20T00:34:55;99196.69;;;7.14;80.58
6216;BME280;3141;49.234;9.326;2022-11-20T00:35:37;99197.41;;;7.06;80.86
6216;BME280;3141;49.234;9.326;2022-11-20T00:36:22;99195.84;;;7.13;80.82
6216;BME280;3141;49.234;9.326;2022-11-20T00:37:04;99192.94;;;7.16;80.97
6216;BME280;3141;49.234;9.326;2022-11-20T00:37:47;99193.91;;;7.15;81.08
6216;BME280;3141;49.234;9.326;2022-11-20T00:38:30;99190.81;;;7.20;81.39
6216;BME280;3141;49.234;9.326;2022-11-20T00:39:13;99196.09;;;7.20;81.59
6216;BME280;3141;49.234;9.326;2022-11-20T00:39:55;99193.38;;;7.12;81.64
6216;BME280;3141;49.234;9.326;2022-11-20T00:40:37;99195.75;;;7.05;82.13
6216;BME280;3141;49.234;9.326;2022-11-20T00:41:20;99192.28;;;7.04;82.12
6216;BME280;3141;49.234;9.326;2022-11-20T00:42:02;99193.97;;;7.06;82.59
6216;BME280;3141;49.234;9.326;2022-11-20T00:42:45;99188.72;;;7.06;82.49
6216;BME280;3141;49.234;9.326;2022-11-20T00:43:27;99190.69;;;6.94;83.32
6216;BME280;3141;49.234;9.326;2022-11-20T00:44:10;99179.00;;;7.06;82.57
6216;BME280;3141;49.234;9.326;2022-11-20T00:44:52;99196.19;;;7.00;82.69
6216;BME280;3141;49.234;9.326;2022-11-20T00:45:34;99188.72;;;7.06;82.47
6216;BME280;3141;49.234;9.326;2022-11-20T00:46:18;99186.47;;;7.11;82.27
6216;BME280;3141;49.234;9.326;2022-11-20T00:47:01;99190.34;;;7.07;82.60
6216;BME280;3141;49.234;9.326;2022-11-20T00:47:43;99194.22;;;7.02;82.66
6216;BME280;3141;49.234;9.326;2022-11-20T00:48:26;99190.25;;;6.98;82.71
6216;BME280;3141;49.234;9.326;2022-11-20T00:49:08;99183.72;;;7.02;82.45
6216;BME280;3141;49.234;9.326;2022-11-20T00:49:51;99197.00;;;7.01;82.72
6216;BME280;3141;49.234;9.326;2022-11-20T00:50:33;99194.53;;;6.99;82.44
6216;BME280;3141;49.234;9.326;2022-11-20T00:51:18;99187.03;;;7.04;82.65
6216;BME280;3141;49.234;9.326;2022-11-20T00:52:00;99188.34;;;7.18;82.62
6216;BME280;3141;49.234;9.326;2022-11-20T00:52:42;99196.91;;;7.20;82.69
6216;BME280;3141;49.234;9.326;2022-11-20T00:53:25;99202.03;;;7.22;82.63
6216;BME280;3141;49.234;9.326;2022-11-20T00:54:08;99204.78;;;7.30;82.49
6216;BME280;3141;49.234;9.326;2022-11-20T00:54:50;99198.53;;;7.31;82.09
6216;BME280;3141;49.234;9.326;2022-11-20T00:55:33;99197.03;;;7.28;81.58
6216;BME280;3141;49.234;9.326;2022-11-20T00:56:17;99197.16;;;7.27;81.73
6216;BME280;3141;49.234;9.326;2022-11-20T00:56:59;99198.16;;;7.26;81.73
6216;BME280;3141;49.234;9.326;2022-11-20T00:57:42;99204.88;;;7.11;81.21
6216;BME280;3141;49.234;9.326;2022-11-20T00:58:27;99196.22;;;7.18;81.00
6216;BME280;3141;49.234;9.326;2022-11-20T00:59:10;99198.63;;;7.12;82.11
6216;BME280;3141;49.234;9.326;2022-11-20T00:59:53;99198.72;;;7.20;81.44
6216;BME280;3141;49.234;9.326;2022-11-20T01:00:35;99200.38;;;7.21;81.44
6216;BME280;3141;49.234;9.326;2022-11-20T01:01:18;99203.00;;;7.21;81.35
6216;BME280;3141;49.234;9.326;2022-11-20T01:02:01;99191.97;;;7.17;81.45
6216;BME280;3141;49.234;9.326;2022-11-20T01:02:43;99191.03;;;7.09;82.02
6216;BME280;3141;49.234;9.326;2022-11-20T01:03:25;99189.38;;;7.07;82.51
6216;BME280;3141;49.234;9.326;2022-11-20T01:04:08;99193.22;;;7.13;82.25
6216;BME280;3141;49.234;9.326;2022-11-20T01:04:50;99185.47;;;7.12;82.60
6216;BME280;3141;49.234;9.326;2022-11-20T01:05:34;99191.19;;;7.07;82.63
6216;BME280;3141;49.234;9.326;2022-11-20T01:06:32;99186.34;;;7.02;83.05
6216;BME280;3141;49.234;9.326;2022-11-20T01:07:14;99189.81;;;7.03;82.82
6216;BME280;3141;49.234;9.326;2022-11-20T01:07:57;99188.31;;;7.00;82.79
6216;BME280;3141;49.234;9.326;2022-11-20T01:08:40;99190.97;;;6.91;83.14
6216;BME280;3141;49.234;9.326;2022-11-20T01:09:22;99194.81;;;6.96;83.53
6216;BME280;3141;49.234;9.326;2022-11-20T01:10:05;99192.75;;;7.00;83.03
6216;BME280;3141;49.234;9.326;2022-11-20T01:10:47;99194.53;;;6.99;82.26
6216;BME280;3141;49.234;9.326;2022-11-20T01:11:32;99193.91;;;7.15;82.59
6216;BME280;3141;49.234;9.326;2022-11-20T01:12:14;99193.38;;;7.12;82.17
6216;BME280;3141;49.234;9.326;2022-11-20T01:12:57;99192.44;;;7.03;82.86
6216;BME280;3141;49.234;9.326;2022-11-20T01:13:59;99198.53;;;7.03;82.70
6216;BME280;3141;49.234;9.326;2022-11-20T01:14:42;99189.88;;;6.93;83.35
6216;BME280;3141;49.234;9.326;2022-11-20T01:15:24;99200.56;;;7.10;82.99
6216;BME280;3141;49.234;9.326;2022-11-20T01:16:15;99197.78;;;7.11;82.82
6216;BME280;3141;49.234;9.326;2022-11-20T01:16:57;99200.19;;;7.04;82.93
6216;BME280;3141;49.234;9.326;2022-11-20T01:17:40;99197.38;;;7.16;82.94
6216;BME280;3141;49.234;9.326;2022-11-20T01:18:22;99192.19;;;7.24;82.66
6216;BME280;3141;49.234;9.326;2022-11-20T01:19:09;99195.59;;;7.34;82.22
6216;BME280;3141;49.234;9.326;2022-11-20T01:19:51;99194.78;;;7.33;82.00
6216;BME280;3141;49.234;9.326;2022-11-20T01:20:35;99200.84;;;7.34;81.75
6216;BME280;3141;49.234;9.326;2022-11-20T01:21:20;99197.41;;;7.33;81.62
6216;BME280;3141;49.234;9.326;2022-11-20T01:22:03;99202.16;;;7.30;81.67
6216;BME280;3141;49.234;9.326;2022-11-20T01:22:45;99204.94;;;7.28;81.99
6216;BME280;3141;49.234;9.326;2022-11-20T01:23:30;99196.88;;;7.30;81.96
6216;BME280;3141;49.234;9.326;2022-11-20T01:24:16;99205.16;;;7.35;82.07
6216;BME280;3141;49.234;9.326;2022-11-20T01:24:59;99200.16;;;7.32;81.80
6216;BME280;3141;49.234;9.326;2022-11-20T01:25:41;99198.38;;;7.32;81.75
6216;BME280;3141;49.234;9.326;2022-11-20T01:26:29;99193.50;;;7.37;81.99
6216;BME280;3141;49.234;9.326;2022-11-20T01:27:11;99191.63;;;7.30;82.06
6216;BME280;3141;49.234;9.326;2022-11-20T01:27:54;99190.25;;;7.26;82.31
6216;BME280;3141;49.234;9.326;2022-11-20T01:28:36;99191.13;;;7.17;82.31
6216;BME280;3141;49.234;9.326;2022-11-20T01:29:24;99189.25;;;7.09;82.19
6216;BME280;3141;49.234;9.326;2022-11-20T01:30:06;99193.38;;;7.12;83.01
6216;BME280;3141;49.234;9.326;2022-11-20T01:30:49;99192.00;;;7.07;83.44
6216;BME280;3141;49.234;9.326;2022-11-20T01:31:36;99184.41;;;7.04;83.44
6216;BME280;3141;49.234;9.326;2022-11-20T01:32:18;99187.88;;;7.05;82.99
6216;BME280;3141;49.234;9.326;2022-11-20T01:33:01;99189.09;;;7.11;82.77
6216;BME280;3141;49.234;9.326;2022-11-20T01:33:44;99189.50;;;7.16;83.00
6216;BME280;3141;49.234;9.326;2022-11-20T01:34:26;99195.13;;;7.21;82.70
6216;BME280;3141;49.234;9.326;2022-11-20T01:35:09;99186.94;;;7.24;82.54
6216;BME280;3141;49.234;9.326;2022-11-20T01:35:52;99195.22;;;7.29;82.30
6216;BME280;3141;49.234;9.326;2022-11-20T01:36:35;99199.66;;;7.28;82.55
6216;BME280;3141;49.234;9.326;2022-11-20T01:37:18;99194.66;;;7.35;82.09
6216;BME280;3141;49.234;9.326;2022-11-20T01:38:00;99191.88;;;7.36;82.33
6216;BME280;3141;49.234;9.326;2022-11-20T01:38:43;99189.81;;;7.30;82.19
6216;BME280;3141;49.234;9.326;2022-11-20T01:39:26;99194.25;;;7.30;82.19
6216;BME280;3141;49.234;9.326;2022-11-20T01:40:08;99192.28;;;7.32;82.55
6216;BME280;3141;49.234;9.326;2022-11-20T01:40:55;99190.78;;;7.29;82.47
6216;BME280;3141;49.234;9.326;2022-11-20T01:41:38;99192.69;;;7.37;82.32
6216;BME280;3141;49.234;9.326;2022-11-20T01:42:46;99186.06;;;7.33;82.43
6216;BME280;3141;49.234;9.326;2022-11-20T01:43:52;99186.75;;;7.35;82.16
6216;BME280;3141;49.234;9.326;2022-11-20T01:44:50;99178.63;;;7.46;81.89
6216;BME280;3141;49.234;9.326;2022-11-20T01:46:38;99187.06;;;7.49;81.77
6216;BME280;3141;49.234;9.326;2022-11-20T01:47:35;99193.84;;;7.52;81.52
6216;BME280;3141;49.234;9.326;2022-11-20T01:48:20;99186.91;;;7.51;81.33
6216;BME280;3141;49.234;9.326;2022-11-20T01:49:11;99184.28;;;7.51;80.85
6216;BME280;3141;49.234;9.326;2022-11-20T01:51:02;99181.28;;;7.46;81.01
6216;BME280;3141;49.234;9.326;2022-11-20T01:51:54;99183.63;;;7.49;80.96
6216;BME280;3141;49.234;9.326;2022-11-20T01:52:52;99179.63;;;7.45;80.80
6216;BME280;3141;49.234;9.326;2022-11-20T01:53:35;99182.34;;;7.53;80.83
6216;BME280;3141;49.234;9.326;2022-11-20T01:54:24;99181.53;;;7.52;80.63
6216;BME280;3141;49.234;9.326;2022-11-20T01:55:22;99183.31;;;7.52;80.73
6216;BME280;3141;49.234;9.326;2022-11-20T01:56:10;99182.34;;;7.53;80.81
6216;BME280;3141;49.234;9.326;2022-11-20T01:56:57;99178.63;;;7.46;80.39
6216;BME280;3141;49.234;9.326;2022-11-20T01:57:41;99185.19;;;7.42;81.07
6216;BME280;3141;49.234;9.326;2022-11-20T01:58:30;99174.38;;;7.45;81.04
6216;BME280;3141;49.234;9.326;2022-11-20T01:59:15;99175.34;;;7.44;80.42
6216;BME280;3141;49.234;9.326;2022-11-20T02:00:04;99179.81;;;7.34;80.50
6216;BME280;3141;49.234;9.326;2022-11-20T02:00:48;99177.69;;;7.20;80.68
6216;BME280;3141;49.234;9.326;2022-11-20T02:01:30;99173.41;;;7.19;81.14
6216;BME280;3141;49.234;9.326;2022-11-20T02:02:14;99178.09;;;7.25;81.28
6216;BME280;3141;49.234;9.326;2022-11-20T02:02:59;99173.06;;;7.31;81.31
6216;BME280;3141;49.234;9.326;2022-11-20T02:03:43;99173.13;;;7.22;81.67
6216;BME280;3141;49.234;9.326;2022-11-20T02:04:25;99177.72;;;7.37;81.35
6216;BME280;3141;49.234;9.326;2022-11-20T02:06:36;99180.28;;;7.29;80.88
6216;BME280;3141;49.234;9.326;2022-11-20T02:07:20;99174.56;;;7.34;81.43
6216;BME280;3141;49.234;9.326;2022-11-20T02:08:05;99172.84;;;7.42;81.20
6216;BME280;3141;49.234;9.326;2022-11-20T02:08:48;99181.66;;;7.33;80.45
6216;BME280;3141;49.234;9.326;2022-11-20T02:09:31;99171.78;;;7.35;80.56
6216;BME280;3141;49.234;9.326;2022-11-20T02:10:14;99175.41;;;7.34;80.74
6216;BME280;3141;49.234;9.326;2022-11-20T02:10:57;99173.16;;;7.39;80.86
6216;BME280;3141;49.234;9.326;2022-11-20T02:11:39;99170.59;;;7.30;81.24
6216;BME280;3141;49.234;9.326;2022-11-20T02:12:21;99174.72;;;7.32;81.30
6216;BME280;3141;49.234;9.326;2022-11-20T02:13:22;99172.78;;;7.34;81.18
6216;BME280;3141;49.234;9.326;2022-11-20T02:14:24;99175.59;;;7.23;81.97
6216;BME280;3141;49.234;9.326;2022-11-20T02:15:06;99170.06;;;7.26;81.88
6216;BME280;3141;49.234;9.326;2022-11-20T02:15:49;99175.84;;;7.30;82.08
6216;BME280;3141;49.234;9.326;2022-11-20T02:16:44;99183.81;;;7.38;81.61
6216;BME280;3141;49.234;9.326;2022-11-20T02:17:27;99179.41;;;7.38;81.85
6216;BME280;3141;49.234;9.326;2022-11-20T02:18:10;99175.63;;;7.41;81.73
6216;BME280;3141;49.234;9.326;2022-11-20T02:18:55;99174.38;;;7.45;82.05
6216;BME280;3141;49.234;9.326;2022-11-20T02:19:38;99176.41;;;7.51;81.20
6216;BME280;3141;49.234;9.326;2022-11-20T02:20:20;99174.59;;;7.51;81.17
6216;BME280;3141;49.234;9.326;2022-11-20T02:21:15;99174.16;;;7.38;81.01
6216;BME280;3141;49.234;9.326;2022-11-20T02:22:26;99177.31;;;7.42;81.06
6216;BME280;3141;49.234;9.326;2022-11-20T02:23:33;99171.81;;;7.53;81.13
6216;BME280;3141;49.234;9.326;2022-11-20T02:24:19;99165.97;;;7.59;81.19
6216;BME280;3141;49.234;9.326;2022-11-20T02:25:02;99170.09;;;7.61;80.93
6216;BME280;3141;49.234;9.326;2022-11-20T02:25:47;99172.88;;;7.60;80.99
6216;BME280;3141;49.234;9.326;2022-11-20T02:26:43;99166.78;;;7.59;80.94
6216;BME280;3141;49.234;9.326;2022-11-20T02:27:27;99164.59;;;7.55;81.02
6216;BME280;3141;49.234;9.326;2022-11-20T02:28:09;99172.66;;;7.53;81.32
6216;BME280;3141;49.234;9.326;2022-11-20T02:28:52;99166.41;;;7.54;81.19
6216;BME280;3141;49.234;9.326;2022-11-20T02:29:59;99165.81;;;7.60;81.29
6216;BME280;3141;49.234;9.326;2022-11-20T02:30:42;99167.63;;;7.60;81.29
6216;BME280;3141;49.234;9.326;2022-11-20T02:31:25;99172.88;;;7.60;81.43
6216;BME280;3141;49.234;9.326;2022-11-20T02:32:25;99164.31;;;7.58;81.62
6216;BME280;3141;49.234;9.326;2022-11-20T02:33:07;99170.63;;;7.65;81.31
6216;BME280;3141;49.234;9.326;2022-11-20T02:33:56;99167.91;;;7.57;81.51
6216;BME280;3141;49.234;9.326;2022-11-20T02:34:39;99175.44;;;7.52;81.51
6216;BME280;3141;49.234;9.326;2022-11-20T02:36:04;99167.38;;;7.53;81.23
6216;BME280;3141;49.234;9.326;2022-11-20T02:36:48;99168.22;;;7.54;81.32
6216;BME280;3141;49.234;9.326;2022-11-20T02:37:34;99169.78;;;7.47;81.49
6216;BME280;3141;49.234;9.326;2022-11-20T02:38:18;99165.97;;;7.59;81.62
6216;BME280;3141;49.234;9.326;2022-11-20T02:39:02;99169.13;;;7.62;81.55
6216;BME280;3141;49.234;9.326;2022-11-20T02:39:46;99172.88;;;7.60;81.15
6216;BME280;3141;49.234;9.326;2022-11-20T02:40:29;99173.25;;;7.65;81.33
6216;BME280;3141;49.234;9.326;2022-11-20T02:41:11;99170.94;;;7.62;81.00
6216;BME280;3141;49.234;9.326;2022-11-20T02:41:55;99172.56;;;7.63;80.56
6216;BME280;3141;49.234;9.326;2022-11-20T02:42:38;99173.56;;;7.62;81.04
6216;BME280;3141;49.234;9.326;2022-11-20T02:43:20;99171.63;;;7.64;81.15
6216;BME280;3141;49.234;9.326;2022-11-20T02:44:03;99168.38;;;7.70;80.92
6216;BME280;3141;49.234;9.326;2022-11-20T02:44:46;99166.72;;;7.69;81.16
6216;BME280;3141;49.234;9.326;2022-11-20T02:45:28;99165.22;;;7.66;80.44
6216;BME280;3141;49.234;9.326;2022-11-20T02:46:11;99169.94;;;7.63;81.02
6216;BME280;3141;49.234;9.326;2022-11-20T02:46:57;99165.38;;;7.65;81.04
6216;BME280;3141;49.234;9.326;2022-11-20T02:47:39;99167.63;;;7.60;81.28
6216;BME280;3141;49.234;9.326;2022-11-20T02:48:21;99167.31;;;7.63;81.29
6216;BME280;3141;49.234;9.326;2022-11-20T02:49:04;99161.25;;;7.62;81.02
6216;BME280;3141;49.234;9.326;2022-11-20T02:49:47;99163.56;;;7.65;81.05
6216;BME280;3141;49.234;9.326;2022-11-20T02:50:29;99165.38;;;7.65;82.06
6216;BME280;3141;49.234;9.326;2022-11-20T02:51:12;99165.75;;;7.70;81.66
6216;BME280;3141;49.234;9.326;2022-11-20T02:51:54;99155.91;;;7.72;81.12
6216;BME280;3141;49.234;9.326;2022-11-20T02:52:36;99152.94;;;7.75;81.37
6216;BME280;3141;49.234;9.326;2022-11-20T02:53:19;99155.31;;;7.78;81.35
6216;BME280;3141;49.234;9.326;2022-11-20T02:54:01;99146.75;;;7.76;81.08
6216;BME280;3141;49.234;9.326;2022-11-20T02:54:43;99151.94;;;7.68;81.07
6216;BME280;3141;49.234;9.326;2022-11-20T02:55:26;99149.00;;;7.71;81.28
6216;BME280;3141;49.234;9.326;2022-11-20T02:56:08;99150.94;;;7.69;80.88
6216;BME280;3141;49.234;9.326;2022-11-20T02:56:50;99148.78;;;7.64;80.79
6216;BME280;3141;49.234;9.326;2022-11-20T02:57:33;99150.19;;;7.59;81.37
6216;BME280;3141;49.234;9.326;2022-11-20T02:58:16;99143.25;;;7.58;81.50
6216;BME280;3141;49.234;9.326;2022-11-20T02:58:58;99148.25;;;7.61;81.09
6216;BME280;3141;49.234;9.326;2022-11-20T02:59:40;99143.25;;;7.58;81.28
6216;BME280;3141;49.234;9.326;2022-11-20T03:00:22;99146.53;;;7.69;81.17
6216;BME280;3141;49.234;9.326;2022-11-20T03:01:05;99147.31;;;7.70;81.19
6216;BME280;3141;49.234;9.326;2022-11-20T03:01:47;99146.75;;;7.76;81.44
6216;BME280;3141;49.234;9.326;2022-11-20T03:02:30;99143.72;;;7.71;81.22
6216;BME280;3141;49.234;9.326;2022-11-20T03:03:12;99150.63;;;7.72;81.18
6216;BME280;3141;49.234;9.326;2022-11-20T03:03:55;99143.94;;;7.60;81.24
6216;BME280;3141;49.234;9.326;2022-11-20T03:04:38;99141.25;;;7.52;80.99
6216;BME280;3141;49.234;9.326;2022-11-20T03:05:20;99148.38;;;7.42;81.17
6216;BME280;3141;49.234;9.326;2022-11-20T03:06:02;99141.44;;;7.41;81.62
6216;BME280;3141;49.234;9.326;2022-11-20T03:06:45;99147.00;;;7.38;82.14
6216;BME280;3141;49.234;9.326;2022-11-20T03:07:27;99143.03;;;7.51;82.02
6216;BME280;3141;49.234;9.326;2022-11-20T03:08:09;99147.53;;;7.41;81.97
6216;BME280;3141;49.234;9.326;2022-11-20T03:08:52;99138.09;;;7.48;82.41
6216;BME280;3141;49.234;9.326;2022-11-20T03:09:34;99141.94;;;7.54;82.22
6216;BME280;3141;49.234;9.326;2022-11-20T03:10:16;99148.09;;;7.62;82.18
6216;BME280;3141;49.234;9.326;2022-11-20T03:11:06;99143.09;;;7.59;82.04
6216;BME280;3141;49.234;9.326;2022-11-20T03:11:49;99143.63;;;7.63;81.81
6216;BME280;3141;49.234;9.326;2022-11-20T03:12:31;99150.41;;;7.65;81.73
6216;BME280;3141;49.234;9.326;2022-11-20T03:13:13;99147.94;;;7.64;81.87
6216;BME280;3141;49.234;9.326;2022-11-20T03:13:56;99149.56;;;7.65;81.83
6216;BME280;3141;49.234;9.326;2022-11-20T03:14:38;99148.91;;;7.63;82.19
6216;BME280;3141;49.234;9.326;2022-11-20T03:15:22;99145.88;;;7.58;82.01
6216;BME280;3141;49.234;9.326;2022-11-20T03:16:16;99150.19;;;7.59;82.38
6216;BME280;3141;49.234;9.326;2022-11-20T03:16:58;99143.41;;;7.56;82.34
6216;BME280;3141;49.234;9.326;2022-11-20T03:17:41;99144.94;;;7.59;82.21
6216;BME280;3141;49.234;9.326;2022-11-20T03:18:23;99144.63;;;7.62;81.87
6216;BME280;3141;49.234;9.326;2022-11-20T03:19:06;99142.47;;;7.57;82.42
6216;BME280;3141;49.234;9.326;2022-11-20T03:19:48;99138.84;;;7.58;81.93
6216;BME280;3141;49.234;9.326;2022-11-20T03:20:32;99144.84;;;7.68;82.00
6216;BME280;3141;49.234;9.326;2022-11-20T03:21:15;99138.38;;;7.63;82.07
6216;BME280;3141;49.234;9.326;2022-11-20T03:21:58;99137.41;;;7.64;82.09
6216;BME280;3141;49.234;9.326;2022-11-20T03:22:42;99139.81;;;7.57;82.20
6216;BME280;3141;49.234;9.326;2022-11-20T03:23:24;99141.00;;;7.63;82.21
6216;BME280;3141;49.234;9.326;2022-11-20T03:24:07;99146.25;;;7.63;82.48
6216;BME280;3141;49.234;9.326;2022-11-20T03:24:49;99132.31;;;7.62;82.49
6216;BME280;3141;49.234;9.326;2022-11-20T03:25:32;99127.78;;;7.55;82.65
6216;BME280;3141;49.234;9.326;2022-11-20T03:26:22;99125.00;;;7.56;82.27
6216;BME280;3141;49.234;9.326;2022-11-20T03:27:05;99125.63;;;7.68;82.14
6216;BME280;3141;49.234;9.326;2022-11-20T03:27:47;99129.44;;;7.73;82.13
6216;BME280;3141;49.234;9.326;2022-11-20T03:28:29;99128.69;;;7.81;81.36
6216;BME280;3141;49.234;9.326;2022-11-20T03:29:12;99132.59;;;7.77;81.57
6216;BME280;3141;49.234;9.326;2022-11-20T03:29:54;99125.31;;;7.71;81.42
6216;BME280;3141;49.234;9.326;2022-11-20T03:30:36;99123.91;;;7.76;81.73
6216;BME280;3141;49.234;9.326;2022-11-20T03:31:29;99126.38;;;7.78;81.99
6216;BME280;3141;49.234;9.326;2022-11-20T03:32:12;99134.53;;;7.75;81.76
6216;BME280;3141;49.234;9.326;2022-11-20T03:32:54;99125.69;;;7.76;82.02
6216;BME280;3141;49.234;9.326;2022-11-20T03:33:37;99130.56;;;7.71;82.13
6216;BME280;3141;49.234;9.326;2022-11-20T03:34:20;99132.59;;;7.77;82.18
6216;BME280;3141;49.234;9.326;2022-11-20T03:35:02;99127.31;;;7.77;81.31
6216;BME280;3141;49.234;9.326;2022-11-20T03:35:44;99124.84;;;7.75;81.48
6216;BME280;3141;49.234;9.326;2022-11-20T03:36:27;99136.06;;;7.77;81.33
6216;BME280;3141;49.234;9.326;2022-11-20T03:37:09;99131.41;;;7.71;81.29
6216;BME280;3141;49.234;9.326;2022-11-20T03:37:52;99129.91;;;7.69;81.20
6216;BME280;3141;49.234;9.326;2022-11-20T03:38:34;99133.13;;;7.63;81.81
6216;BME280;3141;49.234;9.326;2022-11-20T03:39:17;99126.00;;;7.55;82.36
6216;BME280;3141;49.234;9.326;2022-11-20T03:39:59;99128.47;;;7.57;82.39
6216;BME280;3141;49.234;9.326;2022-11-20T03:40:41;99132.09;;;7.56;82.53
6216;BME280;3141;49.234;9.326;2022-11-20T03:41:26;99133.28;;;7.61;82.42
6216;BME280;3141;49.234;9.326;2022-11-20T03:42:09;99132.47;;;7.61;83.00
6216;BME280;3141;49.234;9.326;2022-11-20T03:43:11;99130.28;;;7.74;82.78
6216;BME280;3141;49.234;9.326;2022-11-20T03:43:58;99131.53;;;7.70;82.96
6216;BME280;3141;49.234;9.326;2022-11-20T03:44:41;99131.63;;;7.60;82.44
6216;BME280;3141;49.234;9.326;2022-11-20T03:45:23;99131.63;;;7.60;82.75
6216;BME280;3141;49.234;9.326;2022-11-20T03:46:06;99133.41;;;7.60;82.50
6216;BME280;3141;49.234;9.326;2022-11-20T03:46:49;99132.31;;;7.62;82.99
6216;BME280;3141;49.234;9.326;2022-11-20T03:47:31;99134.47;;;7.67;82.62
6216;BME280;3141;49.234;9.326;2022-11-20T03:48:13;99134.84;;;7.72;82.38
6216;BME280;3141;49.234;9.326;2022-11-20T03:48:56;99132.06;;;7.73;82.30
6216;BME280;3141;49.234;9.326;2022-11-20T03:49:38;99118.47;;;7.78;82.28
6216;BME280;3141;49.234;9.326;2022-11-20T03:50:21;99120.78;;;7.81;82.03
6216;BME280;3141;49.234;9.326;2022-11-20T03:51:53;99120.44;;;7.76;82.04
6216;BME280;3141;49.234;9.326;2022-11-20T03:52:35;99123.97;;;7.67;83.12
6216;BME280;3141;49.234;9.326;2022-11-20T03:53:17;99134.31;;;7.68;82.79
6216;BME280;3141;49.234;9.326;2022-11-20T03:54:06;99128.53;;;7.65;82.93
6216;BME280;3141;49.234;9.326;2022-11-20T03:54:48;99129.16;;;7.59;83.41
6216;BME280;3141;49.234;9.326;2022-11-20T03:55:30;99128.69;;;7.63;83.41
6216;BME280;3141;49.234;9.326;2022-11-20T03:56:14;99124.13;;;7.65;83.27
6216;BME280;3141;49.234;9.326;2022-11-20T03:56:56;99126.75;;;7.65;83.23
6216;BME280;3141;49.234;9.326;2022-11-20T03:57:38;99121.78;;;7.62;83.22
6216;BME280;3141;49.234;9.326;2022-11-20T03:58:21;99128.00;;;7.61;83.08
6216;BME280;3141;49.234;9.326;2022-11-20T03:59:03;99123.28;;;7.65;83.10
6216;BME280;3141;49.234;9.326;2022-11-20T03:59:46;99116.59;;;7.70;83.09
6216;BME280;3141;49.234;9.326;2022-11-20T04:00:28;99125.09;;;7.64;83.20
6216;BME280;3141;49.234;9.326;2022-11-20T04:01:16;99128.25;;;7.68;83.29
6216;BME280;3141;49.234;9.326;2022-11-20T04:01:59;99120.66;;;7.65;83.48
6216;BME280;3141;49.234;9.326;2022-11-20T04:02:41;99123.28;;;7.65;83.58
6216;BME280;3141;49.234;9.326;2022-11-20T04:03:23;99111.84;;;7.74;83.21
6216;BME280;3141;49.234;9.326;2022-11-20T04:04:06;99123.97;;;7.67;83.98
6216;BME280;3141;49.234;9.326;2022-11-20T04:04:48;99118.84;;;7.65;84.03
6216;BME280;3141;49.234;9.326;2022-11-20T04:05:33;99118.16;;;7.63;83.76
6216;BME280;3141;49.234;9.326;2022-11-20T04:06:18;99119.38;;;7.69;83.95
6216;BME280;3141;49.234;9.326;2022-11-20T04:07:02;99117.72;;;7.68;83.09
6216;BME280;3141;49.234;9.326;2022-11-20T04:07:44;99112.53;;;7.58;83.69
6216;BME280;3141;49.234;9.326;2022-11-20T04:08:28;99119.16;;;7.62;83.61